sensor_id;sensor_type;location;lat;lon;timestamp;P1;durP1;ratioP1;P2;durP2;ratioP2
17763;SDS011;22245;52.832;13.816;2023-02-04T00:02:29;3.47;;;1.50;;
17763;SDS011;22245;52.832;13.816;2023-02-04T00:05:51;3.60;;;1.60;;
17763;SDS011;22245;52.832;13.816;2023-02-04T00:09:13;2.50;;;1.30;;
17763;SDS011;22245;52.832;13.816;2023-02-04T00:12:36;2.90;;;1.30;;
17763;SDS011;22245;52.832;13.816;2023-02-04T00:15:57;1.77;;;1.30;;
17763;SDS011;22245;52.832;13.816;2023-02-04T00:19:20;1.60;;;0.97;;
17763;SDS011;22245;52.832;13.816;2023-02-04T00:22:42;1.47;;;1.10;;
17763;SDS011;22245;52.832;13.816;2023-02-04T00:26:04;1.97;;;1.10;;
17763;SDS011;22245;52.832;13.816;2023-02-04T00:29:25;4.40;;;1.10;;
17763;SDS011;22245;52.832;13.816;2023-02-04T00:32:47;2.03;;;1.00;;
17763;SDS011;22245;52.832;13.816;2023-02-04T00:36:15;4.27;;;1.00;;
17763;SDS011;22245;52.832;13.816;2023-02-04T00:39:37;4.40;;;1.30;;
17763;SDS011;22245;52.832;13.816;2023-02-04T00:42:58;2.83;;;1.00;;
17763;SDS011;22245;52.832;13.816;2023-02-04T00:46:20;1.60;;;0.80;;
17763;SDS011;22245;52.832;13.816;2023-02-04T00:49:41;4.90;;;1.00;;
17763;SDS011;22245;52.832;13.816;2023-02-04T00:53:04;1.83;;;1.00;;
17763;SDS011;22245;52.832;13.816;2023-02-04T00:56:26;3.13;;;0.90;;
17763;SDS011;22245;52.832;13.816;2023-02-04T00:59:48;2.60;;;1.00;;
17763;SDS011;22245;52.832;13.816;2023-02-04T01:03:10;2.17;;;1.10;;
17763;SDS011;22245;52.832;13.816;2023-02-04T01:06:32;3.37;;;1.10;;
17763;SDS011;22245;52.832;13.816;2023-02-04T01:09:55;1.53;;;0.70;;
17763;SDS011;22245;52.832;13.816;2023-02-04T01:13:17;3.67;;;1.27;;
17763;SDS011;22245;52.832;13.816;2023-02-04T01:16:38;4.77;;;1.00;;
17763;SDS011;22245;52.832;13.816;2023-02-04T01:20:00;2.03;;;0.90;;
17763;SDS011;22245;52.832;13.816;2023-02-04T01:23:22;2.10;;;0.90;;
17763;SDS011;22245;52.832;13.816;2023-02-04T01:26:45;3.70;;;0.90;;
17763;SDS011;22245;52.832;13.816;2023-02-04T01:30:08;1.97;;;1.00;;
17763;SDS011;22245;52.832;13.816;2023-02-04T01:33:31;2.30;;;1.10;;
17763;SDS011;22245;52.832;13.816;2023-02-04T01:36:52;2.80;;;1.03;;
17763;SDS011;22245;52.832;13.816;2023-02-04T01:40:13;2.73;;;1.00;;
17763;SDS011;22245;52.832;13.816;2023-02-04T01:43:36;3.97;;;1.00;;
17763;SDS011;22245;52.832;13.816;2023-02-04T01:46:58;4.10;;;0.87;;
17763;SDS011;22245;52.832;13.816;2023-02-04T01:50:20;1.63;;;0.93;;
17763;SDS011;22245;52.832;13.816;2023-02-04T01:53:42;2.23;;;0.93;;
17763;SDS011;22245;52.832;13.816;2023-02-04T01:57:05;2.33;;;1.00;;
17763;SDS011;22245;52.832;13.816;2023-02-04T02:00:31;2.10;;;1.10;;
17763;SDS011;22245;52.832;13.816;2023-02-04T02:03:55;1.47;;;0.80;;
17763;SDS011;22245;52.832;13.816;2023-02-04T02:07:17;1.23;;;0.80;;
17763;SDS011;22245;52.832;13.816;2023-02-04T02:10:39;3.70;;;0.80;;
17763;SDS011;22245;52.832;13.816;2023-02-04T02:14:03;1.37;;;0.83;;
17763;SDS011;22245;52.832;13.816;2023-02-04T02:17:26;2.43;;;0.90;;
17763;SDS011;22245;52.832;13.816;2023-02-04T02:20:48;2.17;;;0.83;;
17763;SDS011;22245;52.832;13.816;2023-02-04T02:24:27;2.70;;;1.00;;
17763;SDS011;22245;52.832;13.816;2023-02-04T02:27:50;2.33;;;0.93;;
17763;SDS011;22245;52.832;13.816;2023-02-04T02:31:12;4.07;;;0.90;;
17763;SDS011;22245;52.832;13.816;2023-02-04T02:34:34;1.10;;;0.70;;
17763;SDS011;22245;52.832;13.816;2023-02-04T02:37:56;4.80;;;1.00;;
17763;SDS011;22245;52.832;13.816;2023-02-04T02:41:19;2.80;;;0.80;;
17763;SDS011;22245;52.832;13.816;2023-02-04T02:44:42;1.73;;;0.70;;
17763;SDS011;22245;52.832;13.816;2023-02-04T02:48:05;2.00;;;0.90;;
17763;SDS011;22245;52.832;13.816;2023-02-04T02:51:27;2.80;;;1.27;;
17763;SDS011;22245;52.832;13.816;2023-02-04T02:54:51;3.23;;;1.00;;
17763;SDS011;22245;52.832;13.816;2023-02-04T02:58:21;1.93;;;1.10;;
17763;SDS011;22245;52.832;13.816;2023-02-04T03:01:46;2.37;;;0.93;;
17763;SDS011;22245;52.832;13.816;2023-02-04T03:05:13;1.87;;;0.83;;
17763;SDS011;22245;52.832;13.816;2023-02-04T03:08:35;3.97;;;0.87;;
17763;SDS011;22245;52.832;13.816;2023-02-04T03:11:57;2.70;;;0.90;;
17763;SDS011;22245;52.832;13.816;2023-02-04T03:15:22;3.50;;;1.00;;
17763;SDS011;22245;52.832;13.816;2023-02-04T03:18:44;3.13;;;0.90;;
17763;SDS011;22245;52.832;13.816;2023-02-04T03:22:06;4.57;;;1.03;;
17763;SDS011;22245;52.832;13.816;2023-02-04T03:25:28;2.53;;;0.90;;
17763;SDS011;22245;52.832;13.816;2023-02-04T03:28:50;4.77;;;0.97;;
17763;SDS011;22245;52.832;13.816;2023-02-04T03:32:14;2.13;;;0.80;;
17763;SDS011;22245;52.832;13.816;2023-02-04T03:35:36;1.87;;;0.87;;
17763;SDS011;22245;52.832;13.816;2023-02-04T03:38:57;2.23;;;0.90;;
17763;SDS011;22245;52.832;13.816;2023-02-04T03:42:19;4.00;;;0.80;;
17763;SDS011;22245;52.832;13.816;2023-02-04T03:45:40;3.30;;;0.80;;
17763;SDS011;22245;52.832;13.816;2023-02-04T03:49:06;1.83;;;0.67;;
17763;SDS011;22245;52.832;13.816;2023-02-04T03:52:27;2.83;;;0.90;;
17763;SDS011;22245;52.832;13.816;2023-02-04T03:55:49;2.13;;;0.80;;
17763;SDS011;22245;52.832;13.816;2023-02-04T03:59:10;2.53;;;0.80;;
17763;SDS011;22245;52.832;13.816;2023-02-04T04:02:32;2.63;;;0.90;;
17763;SDS011;22245;52.832;13.816;2023-02-04T04:05:55;1.30;;;0.53;;
17763;SDS011;22245;52.832;13.816;2023-02-04T04:09:16;3.77;;;0.97;;
17763;SDS011;22245;52.832;13.816;2023-02-04T04:12:38;1.37;;;0.80;;
17763;SDS011;22245;52.832;13.816;2023-02-04T04:15:59;2.60;;;0.83;;
17763;SDS011;22245;52.832;13.816;2023-02-04T04:19:22;3.80;;;0.93;;
17763;SDS011;22245;52.832;13.816;2023-02-04T04:22:45;3.50;;;1.17;;
17763;SDS011;22245;52.832;13.816;2023-02-04T04:26:07;4.80;;;0.80;;
17763;SDS011;22245;52.832;13.816;2023-02-04T04:29:28;4.63;;;0.80;;
17763;SDS011;22245;52.832;13.816;2023-02-04T04:32:50;5.40;;;1.80;;
17763;SDS011;22245;52.832;13.816;2023-02-04T04:36:11;5.40;;;1.20;;
17763;SDS011;22245;52.832;13.816;2023-02-04T04:39:35;4.67;;;1.00;;
17763;SDS011;22245;52.832;13.816;2023-02-04T04:42:56;2.40;;;1.10;;
17763;SDS011;22245;52.832;13.816;2023-02-04T04:46:18;3.43;;;1.03;;
17763;SDS011;22245;52.832;13.816;2023-02-04T04:49:40;3.80;;;0.90;;
17763;SDS011;22245;52.832;13.816;2023-02-04T04:53:02;1.90;;;0.93;;
17763;SDS011;22245;52.832;13.816;2023-02-04T04:56:24;4.63;;;1.10;;
17763;SDS011;22245;52.832;13.816;2023-02-04T04:59:46;2.53;;;0.90;;
17763;SDS011;22245;52.832;13.816;2023-02-04T05:03:07;4.50;;;1.00;;
17763;SDS011;22245;52.832;13.816;2023-02-04T05:06:29;3.30;;;0.80;;
17763;SDS011;22245;52.832;13.816;2023-02-04T05:09:50;3.53;;;1.03;;
17763;SDS011;22245;52.832;13.816;2023-02-04T05:13:13;2.77;;;1.10;;
17763;SDS011;22245;52.832;13.816;2023-02-04T05:16:35;1.90;;;1.13;;
17763;SDS011;22245;52.832;13.816;2023-02-04T05:19:57;2.70;;;1.00;;
17763;SDS011;22245;52.832;13.816;2023-02-04T05:23:19;4.13;;;0.80;;
17763;SDS011;22245;52.832;13.816;2023-02-04T05:26:40;3.60;;;1.13;;
17763;SDS011;22245;52.832;13.816;2023-02-04T05:30:03;3.90;;;1.20;;
17763;SDS011;22245;52.832;13.816;2023-02-04T05:33:25;3.33;;;0.90;;
17763;SDS011;22245;52.832;13.816;2023-02-04T05:36:47;4.10;;;1.40;;
17763;SDS011;22245;52.832;13.816;2023-02-04T05:40:08;3.87;;;0.87;;
17763;SDS011;22245;52.832;13.816;2023-02-04T05:43:30;3.00;;;1.00;;
17763;SDS011;22245;52.832;13.816;2023-02-04T05:46:53;5.03;;;0.90;;
17763;SDS011;22245;52.832;13.816;2023-02-04T05:50:15;1.50;;;0.80;;
17763;SDS011;22245;52.832;13.816;2023-02-04T05:53:36;2.43;;;0.90;;
17763;SDS011;22245;52.832;13.816;2023-02-04T05:56:58;1.97;;;0.80;;
17763;SDS011;22245;52.832;13.816;2023-02-04T06:00:20;1.90;;;1.17;;
17763;SDS011;22245;52.832;13.816;2023-02-04T06:03:43;3.67;;;1.43;;
17763;SDS011;22245;52.832;13.816;2023-02-04T06:07:05;3.53;;;1.40;;
17763;SDS011;22245;52.832;13.816;2023-02-04T06:10:26;1.80;;;0.90;;
17763;SDS011;22245;52.832;13.816;2023-02-04T06:13:48;2.17;;;1.20;;
17763;SDS011;22245;52.832;13.816;2023-02-04T06:17:11;2.23;;;0.90;;
17763;SDS011;22245;52.832;13.816;2023-02-04T06:20:34;2.97;;;0.97;;
17763;SDS011;22245;52.832;13.816;2023-02-04T06:23:55;1.97;;;1.10;;
17763;SDS011;22245;52.832;13.816;2023-02-04T06:27:17;4.07;;;1.10;;
17763;SDS011;22245;52.832;13.816;2023-02-04T06:30:42;3.17;;;1.00;;
17763;SDS011;22245;52.832;13.816;2023-02-04T06:34:04;2.77;;;0.97;;
17763;SDS011;22245;52.832;13.816;2023-02-04T06:37:27;2.83;;;1.00;;
17763;SDS011;22245;52.832;13.816;2023-02-04T06:40:49;3.07;;;0.97;;
17763;SDS011;22245;52.832;13.816;2023-02-04T06:44:13;3.03;;;0.90;;
17763;SDS011;22245;52.832;13.816;2023-02-04T06:47:35;3.33;;;1.30;;
17763;SDS011;22245;52.832;13.816;2023-02-04T06:50:56;3.63;;;1.80;;
17763;SDS011;22245;52.832;13.816;2023-02-04T06:54:18;1.67;;;0.80;;
17763;SDS011;22245;52.832;13.816;2023-02-04T06:57:40;2.50;;;1.00;;
17763;SDS011;22245;52.832;13.816;2023-02-04T07:01:01;2.20;;;1.13;;
17763;SDS011;22245;52.832;13.816;2023-02-04T07:04:23;4.90;;;1.00;;
17763;SDS011;22245;52.832;13.816;2023-02-04T07:07:45;3.77;;;1.10;;
17763;SDS011;22245;52.832;13.816;2023-02-04T07:11:08;2.80;;;1.17;;
17763;SDS011;22245;52.832;13.816;2023-02-04T07:14:29;2.87;;;1.07;;
17763;SDS011;22245;52.832;13.816;2023-02-04T07:17:51;2.90;;;1.40;;
17763;SDS011;22245;52.832;13.816;2023-02-04T07:21:13;5.93;;;2.70;;
17763;SDS011;22245;52.832;13.816;2023-02-04T07:24:34;5.03;;;2.43;;
17763;SDS011;22245;52.832;13.816;2023-02-04T07:27:57;5.03;;;2.40;;
17763;SDS011;22245;52.832;13.816;2023-02-04T07:31:20;5.50;;;2.07;;
17763;SDS011;22245;52.832;13.816;2023-02-04T07:34:42;5.87;;;1.40;;
17763;SDS011;22245;52.832;13.816;2023-02-04T07:38:04;4.70;;;1.20;;
17763;SDS011;22245;52.832;13.816;2023-02-04T07:41:27;2.80;;;0.80;;
17763;SDS011;22245;52.832;13.816;2023-02-04T07:44:50;4.57;;;1.10;;
17763;SDS011;22245;52.832;13.816;2023-02-04T07:48:11;3.83;;;1.10;;
17763;SDS011;22245;52.832;13.816;2023-02-04T07:51:33;4.73;;;1.00;;
17763;SDS011;22245;52.832;13.816;2023-02-04T07:54:55;2.63;;;1.00;;
17763;SDS011;22245;52.832;13.816;2023-02-04T07:58:17;1.70;;;1.03;;
17763;SDS011;22245;52.832;13.816;2023-02-04T08:01:39;2.30;;;1.17;;
17763;SDS011;22245;52.832;13.816;2023-02-04T08:05:01;3.43;;;0.90;;
17763;SDS011;22245;52.832;13.816;2023-02-04T08:08:23;5.50;;;0.93;;
17763;SDS011;22245;52.832;13.816;2023-02-04T08:11:44;5.47;;;1.63;;
17763;SDS011;22245;52.832;13.816;2023-02-04T08:15:06;2.17;;;0.70;;
17763;SDS011;22245;52.832;13.816;2023-02-04T08:18:30;3.03;;;0.70;;
17763;SDS011;22245;52.832;13.816;2023-02-04T08:21:52;5.40;;;0.90;;
17763;SDS011;22245;52.832;13.816;2023-02-04T08:25:14;3.90;;;0.93;;
17763;SDS011;22245;52.832;13.816;2023-02-04T08:28:36;2.30;;;0.73;;
17763;SDS011;22245;52.832;13.816;2023-02-04T08:31:57;2.20;;;0.90;;
17763;SDS011;22245;52.832;13.816;2023-02-04T08:35:21;2.80;;;0.80;;
17763;SDS011;22245;52.832;13.816;2023-02-04T08:38:42;3.63;;;0.90;;
17763;SDS011;22245;52.832;13.816;2023-02-04T08:42:04;1.90;;;0.70;;
17763;SDS011;22245;52.832;13.816;2023-02-04T08:45:25;2.30;;;0.60;;
17763;SDS011;22245;52.832;13.816;2023-02-04T08:48:47;3.27;;;0.77;;
17763;SDS011;22245;52.832;13.816;2023-02-04T08:52:10;3.10;;;0.60;;
17763;SDS011;22245;52.832;13.816;2023-02-04T08:55:32;2.23;;;0.77;;
17763;SDS011;22245;52.832;13.816;2023-02-04T08:58:54;3.23;;;0.70;;
17763;SDS011;22245;52.832;13.816;2023-02-04T09:02:16;3.17;;;0.73;;
17763;SDS011;22245;52.832;13.816;2023-02-04T09:05:37;4.10;;;1.10;;
17763;SDS011;22245;52.832;13.816;2023-02-04T09:09:00;4.90;;;1.00;;
17763;SDS011;22245;52.832;13.816;2023-02-04T09:12:21;4.33;;;1.07;;
17763;SDS011;22245;52.832;13.816;2023-02-04T09:15:43;3.07;;;0.90;;
17763;SDS011;22245;52.832;13.816;2023-02-04T09:19:05;2.17;;;0.93;;
17763;SDS011;22245;52.832;13.816;2023-02-04T09:22:30;1.73;;;0.73;;
17763;SDS011;22245;52.832;13.816;2023-02-04T09:25:53;2.90;;;0.87;;
17763;SDS011;22245;52.832;13.816;2023-02-04T09:29:14;4.23;;;1.10;;
17763;SDS011;22245;52.832;13.816;2023-02-04T09:32:36;4.87;;;1.00;;
17763;SDS011;22245;52.832;13.816;2023-02-04T09:35:58;3.77;;;0.90;;
17763;SDS011;22245;52.832;13.816;2023-02-04T09:39:19;2.60;;;0.80;;
17763;SDS011;22245;52.832;13.816;2023-02-04T09:42:42;2.23;;;0.83;;
17763;SDS011;22245;52.832;13.816;2023-02-04T09:46:06;2.70;;;1.17;;
17763;SDS011;22245;52.832;13.816;2023-02-04T09:49:29;2.00;;;0.70;;
17763;SDS011;22245;52.832;13.816;2023-02-04T09:52:53;3.27;;;0.80;;
17763;SDS011;22245;52.832;13.816;2023-02-04T09:56:17;3.17;;;0.63;;
17763;SDS011;22245;52.832;13.816;2023-02-04T09:59:40;2.90;;;0.70;;
17763;SDS011;22245;52.832;13.816;2023-02-04T10:03:07;2.57;;;0.90;;
17763;SDS011;22245;52.832;13.816;2023-02-04T10:06:34;1.60;;;0.60;;
17763;SDS011;22245;52.832;13.816;2023-02-04T10:09:56;2.83;;;0.80;;
17763;SDS011;22245;52.832;13.816;2023-02-04T10:13:18;2.33;;;0.70;;
17763;SDS011;22245;52.832;13.816;2023-02-04T10:16:47;2.07;;;0.90;;
17763;SDS011;22245;52.832;13.816;2023-02-04T10:20:13;2.10;;;1.07;;
17763;SDS011;22245;52.832;13.816;2023-02-04T10:23:35;1.93;;;0.70;;
17763;SDS011;22245;52.832;13.816;2023-02-04T10:27:05;2.63;;;0.80;;
17763;SDS011;22245;52.832;13.816;2023-02-04T10:30:29;3.43;;;0.90;;
17763;SDS011;22245;52.832;13.816;2023-02-04T10:34:03;2.87;;;0.90;;
17763;SDS011;22245;52.832;13.816;2023-02-04T10:37:32;3.80;;;0.80;;
17763;SDS011;22245;52.832;13.816;2023-02-04T10:41:00;4.17;;;1.30;;
17763;SDS011;22245;52.832;13.816;2023-02-04T10:44:24;3.00;;;0.80;;
17763;SDS011;22245;52.832;13.816;2023-02-04T10:47:49;3.20;;;0.77;;
17763;SDS011;22245;52.832;13.816;2023-02-04T10:51:13;2.30;;;0.60;;
17763;SDS011;22245;52.832;13.816;2023-02-04T10:54:36;3.60;;;0.70;;
17763;SDS011;22245;52.832;13.816;2023-02-04T10:57:59;4.20;;;1.40;;
17763;SDS011;22245;52.832;13.816;2023-02-04T11:01:24;2.73;;;0.63;;
17763;SDS011;22245;52.832;13.816;2023-02-04T11:04:48;1.10;;;0.70;;
17763;SDS011;22245;52.832;13.816;2023-02-04T11:08:19;1.90;;;0.63;;
17763;SDS011;22245;52.832;13.816;2023-02-04T11:11:46;3.23;;;0.70;;
17763;SDS011;22245;52.832;13.816;2023-02-04T11:19:02;1.57;;;0.83;;
17763;SDS011;22245;52.832;13.816;2023-02-04T11:22:35;1.60;;;0.43;;
17763;SDS011;22245;52.832;13.816;2023-02-04T11:26:10;0.40;;;0.30;;
17763;SDS011;22245;52.832;13.816;2023-02-04T11:29:36;1.10;;;0.30;;
17763;SDS011;22245;52.832;13.816;2023-02-04T11:33:00;1.63;;;0.93;;
17763;SDS011;22245;52.832;13.816;2023-02-04T11:36:23;2.93;;;1.17;;
17763;SDS011;22245;52.832;13.816;2023-02-04T11:39:45;1.87;;;0.60;;
17763;SDS011;22245;52.832;13.816;2023-02-04T11:43:12;2.50;;;0.63;;
17763;SDS011;22245;52.832;13.816;2023-02-04T11:46:35;1.47;;;0.50;;
17763;SDS011;22245;52.832;13.816;2023-02-04T11:49:58;2.50;;;0.70;;
17763;SDS011;22245;52.832;13.816;2023-02-04T11:53:22;2.50;;;0.60;;
17763;SDS011;22245;52.832;13.816;2023-02-04T11:56:45;0.60;;;0.40;;
17763;SDS011;22245;52.832;13.816;2023-02-04T12:00:13;1.13;;;0.50;;
17763;SDS011;22245;52.832;13.816;2023-02-04T12:03:44;0.80;;;0.43;;
17763;SDS011;22245;52.832;13.816;2023-02-04T12:07:10;1.57;;;0.47;;
17763;SDS011;22245;52.832;13.816;2023-02-04T12:10:33;1.30;;;0.50;;
17763;SDS011;22245;52.832;13.816;2023-02-04T12:13:56;1.90;;;0.80;;
17763;SDS011;22245;52.832;13.816;2023-02-04T12:17:20;1.20;;;0.70;;
17763;SDS011;22245;52.832;13.816;2023-02-04T12:20:41;1.17;;;0.40;;
17763;SDS011;22245;52.832;13.816;2023-02-04T12:24:03;4.73;;;0.70;;
17763;SDS011;22245;52.832;13.816;2023-02-04T12:27:25;1.60;;;0.70;;
17763;SDS011;22245;52.832;13.816;2023-02-04T12:30:47;1.97;;;0.90;;
17763;SDS011;22245;52.832;13.816;2023-02-04T12:34:10;2.60;;;0.80;;
17763;SDS011;22245;52.832;13.816;2023-02-04T12:37:31;1.33;;;0.50;;
17763;SDS011;22245;52.832;13.816;2023-02-04T12:40:53;1.07;;;0.40;;
17763;SDS011;22245;52.832;13.816;2023-02-04T12:44:15;1.10;;;0.50;;
17763;SDS011;22245;52.832;13.816;2023-02-04T12:47:37;1.27;;;0.50;;
17763;SDS011;22245;52.832;13.816;2023-02-04T12:51:00;0.93;;;0.57;;
17763;SDS011;22245;52.832;13.816;2023-02-04T12:54:22;1.20;;;0.70;;
17763;SDS011;22245;52.832;13.816;2023-02-04T12:57:44;3.37;;;0.80;;
17763;SDS011;22245;52.832;13.816;2023-02-04T13:01:06;1.40;;;1.13;;
17763;SDS011;22245;52.832;13.816;2023-02-04T13:04:28;2.27;;;0.70;;
17763;SDS011;22245;52.832;13.816;2023-02-04T13:07:50;1.93;;;0.90;;
17763;SDS011;22245;52.832;13.816;2023-02-04T13:11:12;2.17;;;0.70;;
17763;SDS011;22245;52.832;13.816;2023-02-04T13:14:34;0.50;;;0.40;;
17763;SDS011;22245;52.832;13.816;2023-02-04T13:17:56;2.67;;;0.60;;
17763;SDS011;22245;52.832;13.816;2023-02-04T13:21:18;1.90;;;0.50;;
17763;SDS011;22245;52.832;13.816;2023-02-04T13:24:41;3.60;;;0.80;;
17763;SDS011;22245;52.832;13.816;2023-02-04T13:28:04;0.90;;;0.60;;
17763;SDS011;22245;52.832;13.816;2023-02-04T13:31:26;1.20;;;0.60;;
17763;SDS011;22245;52.832;13.816;2023-02-04T13:34:47;1.90;;;0.60;;
17763;SDS011;22245;52.832;13.816;2023-02-04T13:38:09;0.80;;;0.47;;
17763;SDS011;22245;52.832;13.816;2023-02-04T13:41:32;0.70;;;0.40;;
17763;SDS011;22245;52.832;13.816;2023-02-04T13:44:53;1.43;;;0.70;;
17763;SDS011;22245;52.832;13.816;2023-02-04T13:48:14;2.40;;;0.70;;
17763;SDS011;22245;52.832;13.816;2023-02-04T13:51:36;1.20;;;0.47;;
17763;SDS011;22245;52.832;13.816;2023-02-04T13:54:58;2.67;;;0.60;;
17763;SDS011;22245;52.832;13.816;2023-02-04T13:58:21;2.90;;;0.80;;
17763;SDS011;22245;52.832;13.816;2023-02-04T14:01:43;3.83;;;0.50;;
17763;SDS011;22245;52.832;13.816;2023-02-04T14:05:05;0.70;;;0.47;;
17763;SDS011;22245;52.832;13.816;2023-02-04T14:08:26;1.17;;;0.43;;
17763;SDS011;22245;52.832;13.816;2023-02-04T14:11:48;0.57;;;0.40;;
17763;SDS011;22245;52.832;13.816;2023-02-04T14:15:12;0.87;;;0.40;;
17763;SDS011;22245;52.832;13.816;2023-02-04T14:18:33;1.40;;;0.50;;
17763;SDS011;22245;52.832;13.816;2023-02-04T14:21:55;10.73;;;2.07;;
17763;SDS011;22245;52.832;13.816;2023-02-04T14:25:17;0.90;;;0.40;;
17763;SDS011;22245;52.832;13.816;2023-02-04T14:28:38;2.07;;;0.77;;
17763;SDS011;22245;52.832;13.816;2023-02-04T14:32:01;1.03;;;0.80;;
17763;SDS011;22245;52.832;13.816;2023-02-04T14:35:24;2.10;;;0.80;;
17763;SDS011;22245;52.832;13.816;2023-02-04T14:38:46;1.27;;;0.77;;
17763;SDS011;22245;52.832;13.816;2023-02-04T14:42:08;0.87;;;0.57;;
17763;SDS011;22245;52.832;13.816;2023-02-04T14:45:29;1.83;;;0.53;;
17763;SDS011;22245;52.832;13.816;2023-02-04T14:48:52;1.77;;;0.70;;
17763;SDS011;22245;52.832;13.816;2023-02-04T14:52:14;1.40;;;0.70;;
17763;SDS011;22245;52.832;13.816;2023-02-04T14:55:37;1.60;;;0.70;;
17763;SDS011;22245;52.832;13.816;2023-02-04T14:58:58;2.40;;;0.77;;
17763;SDS011;22245;52.832;13.816;2023-02-04T15:02:20;1.27;;;0.60;;
17763;SDS011;22245;52.832;13.816;2023-02-04T15:05:43;2.03;;;0.70;;
17763;SDS011;22245;52.832;13.816;2023-02-04T15:09:04;3.67;;;0.90;;
17763;SDS011;22245;52.832;13.816;2023-02-04T15:12:26;3.67;;;0.90;;
17763;SDS011;22245;52.832;13.816;2023-02-04T15:15:47;2.17;;;1.00;;
17763;SDS011;22245;52.832;13.816;2023-02-04T15:19:09;2.83;;;1.10;;
17763;SDS011;22245;52.832;13.816;2023-02-04T15:22:31;3.40;;;0.90;;
17763;SDS011;22245;52.832;13.816;2023-02-04T15:25:53;1.83;;;0.90;;
17763;SDS011;22245;52.832;13.816;2023-02-04T15:29:16;2.10;;;1.00;;
17763;SDS011;22245;52.832;13.816;2023-02-04T15:32:38;1.13;;;0.73;;
17763;SDS011;22245;52.832;13.816;2023-02-04T15:36:01;3.03;;;1.00;;
17763;SDS011;22245;52.832;13.816;2023-02-04T15:39:25;2.23;;;1.03;;
17763;SDS011;22245;52.832;13.816;2023-02-04T15:42:46;3.77;;;1.40;;
17763;SDS011;22245;52.832;13.816;2023-02-04T15:46:09;3.37;;;1.30;;
17763;SDS011;22245;52.832;13.816;2023-02-04T15:49:31;3.50;;;1.60;;
17763;SDS011;22245;52.832;13.816;2023-02-04T15:52:54;5.17;;;1.70;;
17763;SDS011;22245;52.832;13.816;2023-02-04T15:56:18;3.70;;;1.70;;
17763;SDS011;22245;52.832;13.816;2023-02-04T15:59:39;3.47;;;2.10;;
17763;SDS011;22245;52.832;13.816;2023-02-04T16:03:01;5.50;;;2.30;;
17763;SDS011;22245;52.832;13.816;2023-02-04T16:06:23;4.70;;;2.30;;
17763;SDS011;22245;52.832;13.816;2023-02-04T16:09:45;6.03;;;2.10;;
17763;SDS011;22245;52.832;13.816;2023-02-04T16:13:08;4.70;;;2.00;;
17763;SDS011;22245;52.832;13.816;2023-02-04T16:16:29;4.07;;;1.93;;
17763;SDS011;22245;52.832;13.816;2023-02-04T16:19:50;4.10;;;2.10;;
17763;SDS011;22245;52.832;13.816;2023-02-04T16:23:12;2.77;;;1.47;;
17763;SDS011;22245;52.832;13.816;2023-02-04T16:26:34;3.93;;;1.90;;
17763;SDS011;22245;52.832;13.816;2023-02-04T16:29:57;4.50;;;2.23;;
17763;SDS011;22245;52.832;13.816;2023-02-04T16:33:19;3.87;;;1.70;;
17763;SDS011;22245;52.832;13.816;2023-02-04T16:36:41;3.17;;;1.77;;
17763;SDS011;22245;52.832;13.816;2023-02-04T16:40:03;2.50;;;1.70;;
17763;SDS011;22245;52.832;13.816;2023-02-04T16:43:25;3.30;;;1.97;;
17763;SDS011;22245;52.832;13.816;2023-02-04T16:46:48;4.97;;;2.80;;
17763;SDS011;22245;52.832;13.816;2023-02-04T16:50:09;4.97;;;2.70;;
17763;SDS011;22245;52.832;13.816;2023-02-04T16:53:31;5.27;;;2.87;;
17763;SDS011;22245;52.832;13.816;2023-02-04T16:56:53;4.93;;;2.70;;
17763;SDS011;22245;52.832;13.816;2023-02-04T17:00:16;4.60;;;2.67;;
17763;SDS011;22245;52.832;13.816;2023-02-04T17:03:39;6.03;;;2.80;;
17763;SDS011;22245;52.832;13.816;2023-02-04T17:07:00;3.23;;;2.17;;
17763;SDS011;22245;52.832;13.816;2023-02-04T17:10:22;4.87;;;2.30;;
17763;SDS011;22245;52.832;13.816;2023-02-04T17:14:04;4.00;;;2.00;;
17763;SDS011;22245;52.832;13.816;2023-02-04T17:17:27;4.40;;;2.50;;
17763;SDS011;22245;52.832;13.816;2023-02-04T17:20:50;6.17;;;3.33;;
17763;SDS011;22245;52.832;13.816;2023-02-04T17:24:12;6.33;;;3.70;;
17763;SDS011;22245;52.832;13.816;2023-02-04T17:27:33;7.17;;;4.40;;
17763;SDS011;22245;52.832;13.816;2023-02-04T17:30:55;7.20;;;4.03;;
17763;SDS011;22245;52.832;13.816;2023-02-04T17:34:16;7.87;;;4.03;;
17763;SDS011;22245;52.832;13.816;2023-02-04T17:37:39;6.27;;;3.63;;
17763;SDS011;22245;52.832;13.816;2023-02-04T17:41:01;6.30;;;3.13;;
17763;SDS011;22245;52.832;13.816;2023-02-04T17:44:23;6.47;;;3.40;;
17763;SDS011;22245;52.832;13.816;2023-02-04T17:47:46;5.10;;;3.03;;
17763;SDS011;22245;52.832;13.816;2023-02-04T17:51:08;5.77;;;3.00;;
17763;SDS011;22245;52.832;13.816;2023-02-04T17:54:31;5.07;;;2.80;;
17763;SDS011;22245;52.832;13.816;2023-02-04T17:57:53;4.13;;;2.30;;
17763;SDS011;22245;52.832;13.816;2023-02-04T18:01:16;5.63;;;2.30;;
17763;SDS011;22245;52.832;13.816;2023-02-04T18:04:41;4.77;;;2.17;;
17763;SDS011;22245;52.832;13.816;2023-02-04T18:08:11;4.33;;;2.53;;
17763;SDS011;22245;52.832;13.816;2023-02-04T18:11:37;5.43;;;2.40;;
17763;SDS011;22245;52.832;13.816;2023-02-04T18:15:00;6.50;;;2.70;;
17763;SDS011;22245;52.832;13.816;2023-02-04T18:18:22;7.60;;;3.63;;
17763;SDS011;22245;52.832;13.816;2023-02-04T18:21:45;15.97;;;6.33;;
17763;SDS011;22245;52.832;13.816;2023-02-04T18:25:08;26.53;;;9.53;;
17763;SDS011;22245;52.832;13.816;2023-02-04T18:28:37;15.27;;;5.97;;
17763;SDS011;22245;52.832;13.816;2023-02-04T18:32:07;13.67;;;5.47;;
17763;SDS011;22245;52.832;13.816;2023-02-04T18:35:36;14.60;;;6.53;;
17763;SDS011;22245;52.832;13.816;2023-02-04T18:39:01;13.00;;;5.37;;
17763;SDS011;22245;52.832;13.816;2023-02-04T18:42:35;12.97;;;4.60;;
17763;SDS011;22245;52.832;13.816;2023-02-04T18:46:00;8.80;;;3.40;;
17763;SDS011;22245;52.832;13.816;2023-02-04T18:49:28;4.60;;;2.50;;
17763;SDS011;22245;52.832;13.816;2023-02-04T18:52:52;6.10;;;2.30;;
17763;SDS011;22245;52.832;13.816;2023-02-04T18:56:14;4.80;;;2.10;;
17763;SDS011;22245;52.832;13.816;2023-02-04T18:59:37;3.23;;;1.93;;
17763;SDS011;22245;52.832;13.816;2023-02-04T19:03:03;4.10;;;2.27;;
17763;SDS011;22245;52.832;13.816;2023-02-04T19:06:41;3.60;;;2.20;;
17763;SDS011;22245;52.832;13.816;2023-02-04T19:10:12;5.47;;;2.13;;
17763;SDS011;22245;52.832;13.816;2023-02-04T19:13:47;5.77;;;2.27;;
17763;SDS011;22245;52.832;13.816;2023-02-04T19:17:18;3.97;;;2.10;;
17763;SDS011;22245;52.832;13.816;2023-02-04T19:20:43;4.57;;;2.47;;
17763;SDS011;22245;52.832;13.816;2023-02-04T19:24:07;3.63;;;1.63;;
17763;SDS011;22245;52.832;13.816;2023-02-04T19:27:37;4.23;;;2.20;;
17763;SDS011;22245;52.832;13.816;2023-02-04T19:31:02;2.83;;;1.50;;
17763;SDS011;22245;52.832;13.816;2023-02-04T19:34:25;3.40;;;1.60;;
17763;SDS011;22245;52.832;13.816;2023-02-04T19:37:53;3.03;;;1.23;;
17763;SDS011;22245;52.832;13.816;2023-02-04T19:41:26;3.20;;;1.67;;
17763;SDS011;22245;52.832;13.816;2023-02-04T19:44:50;3.27;;;1.63;;
17763;SDS011;22245;52.832;13.816;2023-02-04T19:48:19;3.73;;;1.40;;
17763;SDS011;22245;52.832;13.816;2023-02-04T19:51:43;4.77;;;2.00;;
17763;SDS011;22245;52.832;13.816;2023-02-04T19:55:22;6.70;;;3.67;;
17763;SDS011;22245;52.832;13.816;2023-02-04T19:58:45;33.20;;;16.40;;
17763;SDS011;22245;52.832;13.816;2023-02-04T20:02:13;32.27;;;14.67;;
17763;SDS011;22245;52.832;13.816;2023-02-04T20:05:56;10.30;;;4.33;;
17763;SDS011;22245;52.832;13.816;2023-02-04T20:09:21;8.20;;;3.73;;